Time;durP1;ratioP1;P1;durP2;ratioP2;P2;SDS_P1;SDS_P2;PMS_P1;PMS_P2;Temp;Humidity;BMP_temperature;BMP_pressure;BME280_temperature;BME280_humidity;BME280_pressure;Samples;Min_cycle;Max_cycle;Signal;HPM_P1;HPM_P2
2022/04/02 00:01:27;;;;;;;1999.90;999.90;;;5.90;64.80;;;;;;4995115;28;20046;-94
2022/04/02 00:03:54;;;;;;;1999.90;999.90;;;5.90;64.80;;;;;;4998768;28;20483;-92
2022/04/02 00:06:20;;;;;;;1999.90;999.90;;;5.90;64.80;;;;;;4993835;28;20039;-94
2022/04/02 00:08:46;;;;;;;1999.90;999.90;;;5.90;64.90;;;;;;4992803;28;20030;-94
2022/04/02 00:11:12;;;;;;;1999.90;999.90;;;5.90;65.00;;;;;;4978435;28;20045;-92
2022/04/02 00:13:38;;;;;;;1999.90;999.90;;;5.90;65.20;;;;;;4979396;28;20042;-92
2022/04/02 00:16:05;;;;;;;1999.90;999.90;;;5.80;65.10;;;;;;4983694;28;20035;-92
2022/04/02 00:18:31;;;;;;;1999.90;999.90;;;5.80;65.30;;;;;;4986532;28;20372;-93
2022/04/02 00:20:58;;;;;;;1999.90;999.90;;;5.80;65.30;;;;;;4999478;28;20034;-92
2022/04/02 00:23:36;;;;;;;1999.90;999.90;;;5.80;65.30;;;;;;4966330;28;20042;-91
2022/04/02 00:26:03;;;;;;;1999.90;999.90;;;5.70;65.30;;;;;;4995119;28;20042;-91
2022/04/02 00:28:29;;;;;;;1999.90;999.90;;;5.80;65.30;;;;;;4997164;28;20419;-94
2022/04/02 00:30:56;;;;;;;1999.90;999.90;;;5.80;65.30;;;;;;4953028;28;20042;-90
2022/04/02 00:33:22;;;;;;;1999.90;999.90;;;5.80;65.40;;;;;;4973610;28;20042;-92
2022/04/02 00:35:48;;;;;;;1999.90;999.90;;;5.70;65.30;;;;;;4976030;28;20048;-93
2022/04/02 00:38:14;;;;;;;1999.90;999.90;;;5.70;65.40;;;;;;4977533;28;20037;-90
2022/04/02 00:40:42;;;;;;;1999.90;999.90;;;5.70;65.40;;;;;;4976218;28;20050;-92
2022/04/02 00:43:28;;;;;;;1999.90;999.90;;;5.70;65.40;;;;;;4990358;28;20149;-93
2022/04/02 00:45:56;;;;;;;1999.90;999.90;;;5.70;65.50;;;;;;4973514;28;20027;-92
2022/04/02 00:48:23;;;;;;;1999.90;999.90;;;5.60;65.50;;;;;;4989462;28;20039;-92
2022/04/02 00:50:56;;;;;;;1999.90;999.90;;;5.60;65.50;;;;;;4973434;28;20038;-91
2022/04/02 00:53:24;;;;;;;1999.90;999.90;;;5.60;65.60;;;;;;4989026;28;20062;-92
2022/04/02 00:55:50;;;;;;;1999.90;999.90;;;5.60;65.60;;;;;;4986809;28;20027;-92
2022/04/02 00:58:17;;;;;;;1999.90;999.90;;;5.60;65.50;;;;;;4988037;28;20039;-92
2022/04/02 01:00:43;;;;;;;1999.90;999.90;;;5.60;65.50;;;;;;4986620;28;20070;-92
2022/04/02 01:03:11;;;;;;;1999.90;999.90;;;5.60;65.60;;;;;;4943665;28;20053;-92
2022/04/02 01:05:38;;;;;;;1999.90;999.90;;;5.60;65.50;;;;;;4973446;28;20503;-93
2022/04/02 01:08:05;;;;;;;1999.90;999.90;;;5.60;65.50;;;;;;4990717;28;20518;-91
2022/04/02 01:10:35;;;;;;;1999.90;999.90;;;5.60;65.50;;;;;;4976598;28;20031;-91
2022/04/02 01:13:02;;;;;;;1999.90;999.90;;;5.60;65.50;;;;;;4972490;28;20039;-92
2022/04/02 01:15:29;;;;;;;1999.90;999.90;;;5.60;65.50;;;;;;4966851;28;20034;-93
2022/04/02 01:17:55;;;;;;;1999.90;999.90;;;5.60;65.60;;;;;;5003842;28;20026;-92
2022/04/02 01:20:22;;;;;;;1999.90;999.90;;;5.50;65.50;;;;;;4997031;28;20046;-92
2022/04/02 01:22:48;;;;;;;1999.90;999.90;;;5.50;65.60;;;;;;4995042;28;20344;-92
2022/04/02 01:25:14;;;;;;;1999.90;999.90;;;5.50;65.60;;;;;;4982885;28;20062;-93
2022/04/02 01:27:41;;;;;;;1999.90;999.90;;;5.50;65.60;;;;;;4978763;28;20061;-92
2022/04/02 01:30:08;;;;;;;1999.90;999.90;;;5.50;65.70;;;;;;5007439;28;20048;-89
2022/04/02 01:32:34;;;;;;;1999.90;999.90;;;5.50;65.80;;;;;;4982311;28;20038;-91
2022/04/02 01:35:00;;;;;;;1999.90;999.90;;;5.50;65.80;;;;;;4998670;28;20026;-92
2022/04/02 01:37:26;;;;;;;1999.90;999.90;;;5.50;65.80;;;;;;4944711;28;20035;-90
2022/04/02 01:39:53;;;;;;;1999.90;999.90;;;5.50;65.90;;;;;;4959034;28;20039;-92
2022/04/02 01:42:24;;;;;;;1999.90;999.90;;;5.50;65.80;;;;;;4943392;28;20035;-90
2022/04/02 01:44:54;;;;;;;1999.90;999.90;;;5.50;66.10;;;;;;4991107;28;20031;-89
2022/04/02 01:47:20;;;;;;;1999.90;999.90;;;5.50;65.80;;;;;;4990062;28;20053;-90
2022/04/02 01:49:47;;;;;;;1999.90;999.90;;;5.50;65.80;;;;;;4972806;28;20049;-90
2022/04/02 01:52:15;;;;;;;1999.90;999.90;;;5.50;65.70;;;;;;4991735;28;20038;-91
2022/04/02 01:54:41;;;;;;;1999.90;999.90;;;5.50;65.60;;;;;;4941612;28;20054;-90
2022/04/02 01:57:07;;;;;;;1999.90;999.90;;;5.50;65.60;;;;;;4990925;28;20035;-93
2022/04/02 01:59:33;;;;;;;1999.90;999.90;;;5.50;65.60;;;;;;4986677;28;20031;-92
2022/04/02 02:02:00;;;;;;;1999.90;999.90;;;5.50;65.70;;;;;;4988835;28;20039;-91
2022/04/02 02:04:27;;;;;;;1999.90;999.90;;;5.50;65.70;;;;;;4962440;28;20061;-91
2022/04/02 02:06:53;;;;;;;1999.90;999.90;;;5.50;65.70;;;;;;4976568;28;20057;-91
2022/04/02 02:09:20;;;;;;;1999.90;999.90;;;5.50;65.80;;;;;;4976569;28;20391;-91
2022/04/02 02:11:46;;;;;;;1999.90;999.90;;;5.50;65.80;;;;;;4976486;28;20022;-91
2022/04/02 02:14:12;;;;;;;1999.90;999.90;;;5.50;65.80;;;;;;5009721;28;20030;-90
2022/04/02 02:16:38;;;;;;;1999.90;999.90;;;5.50;65.80;;;;;;4977492;28;20439;-91
2022/04/02 02:19:04;;;;;;;1999.90;999.90;;;5.50;65.70;;;;;;5009156;28;20026;-89
2022/04/02 02:21:30;;;;;;;1999.90;999.90;;;5.50;65.70;;;;;;4993817;28;20057;-90
2022/04/02 02:23:56;;;;;;;1999.90;999.90;;;5.50;65.70;;;;;;4986956;28;20057;-91
2022/04/02 02:26:23;;;;;;;1999.90;999.90;;;5.50;65.60;;;;;;4976634;28;20034;-88
2022/04/02 02:28:49;;;;;;;1999.90;999.90;;;5.50;65.60;;;;;;5008620;28;20038;-90
2022/04/02 02:31:15;;;;;;;1999.90;999.90;;;5.50;65.50;;;;;;4976919;28;20041;-91
2022/04/02 02:36:26;;;;;;;1999.90;999.90;;;5.50;65.50;;;;;;5001958;28;20042;-91
2022/04/02 02:38:52;;;;;;;1999.90;999.90;;;5.50;65.50;;;;;;5006502;28;20049;-88
2022/04/02 02:41:18;;;;;;;1999.90;999.90;;;5.50;65.40;;;;;;5008023;28;20054;-89
2022/04/02 02:43:44;;;;;;;1999.90;999.90;;;5.50;65.40;;;;;;4976841;28;20058;-90
2022/04/02 02:46:14;;;;;;;1999.90;999.90;;;5.50;65.40;;;;;;5008766;28;20034;-92
2022/04/02 02:48:41;;;;;;;1999.90;999.90;;;5.50;65.30;;;;;;5009001;28;20042;-92
2022/04/02 02:51:07;;;;;;;1999.90;999.90;;;5.50;65.30;;;;;;5015611;28;20475;-89
2022/04/02 02:53:33;;;;;;;1999.90;999.90;;;5.50;65.30;;;;;;5007211;28;20038;-88
2022/04/02 02:55:59;;;;;;;1999.90;999.90;;;5.50;65.30;;;;;;5007305;28;20057;-88
2022/04/02 02:58:25;;;;;;;1999.90;999.90;;;5.50;65.30;;;;;;4994390;28;20039;-90
2022/04/02 03:00:51;;;;;;;1999.90;999.90;;;5.40;65.30;;;;;;4993030;28;20026;-87
2022/04/02 03:03:18;;;;;;;1999.90;999.90;;;5.40;65.40;;;;;;4992499;28;20483;-92
2022/04/02 03:05:44;;;;;;;1999.90;999.90;;;5.40;65.40;;;;;;4983910;28;20042;-89
2022/04/02 03:08:10;;;;;;;1999.90;999.90;;;5.40;65.40;;;;;;4975286;28;20060;-92
2022/04/02 03:10:36;;;;;;;1999.90;999.90;;;5.40;65.50;;;;;;4987647;28;20031;-90
2022/04/02 03:13:02;;;;;;;1999.90;999.90;;;5.30;65.50;;;;;;5008669;28;20396;-90
2022/04/02 03:15:28;;;;;;;1999.90;999.90;;;5.30;65.50;;;;;;4991288;28;20046;-90
2022/04/02 03:18:01;;;;;;;1999.90;999.90;;;5.30;65.50;;;;;;4993047;28;20035;-88
2022/04/02 03:20:28;;;;;;;1999.90;999.90;;;5.20;65.60;;;;;;5007336;28;20026;-91
2022/04/02 03:22:54;;;;;;;1999.90;999.90;;;5.10;65.70;;;;;;4975877;28;20062;-91
2022/04/02 03:25:21;;;;;;;1999.90;999.90;;;5.10;65.70;;;;;;4994071;28;20463;-88
2022/04/02 03:27:47;;;;;;;1999.90;999.90;;;5.10;65.70;;;;;;4988464;28;20030;-93
2022/04/02 03:30:16;;;;;;;1999.90;999.90;;;5.10;65.80;;;;;;4987742;28;20030;-91
2022/04/02 03:32:42;;;;;;;1999.90;999.90;;;5.10;65.90;;;;;;4989779;28;20399;-89
2022/04/02 03:35:09;;;;;;;1999.90;999.90;;;5.10;65.80;;;;;;5007619;28;21717;-90
2022/04/02 03:37:38;;;;;;;1999.90;999.90;;;5.10;65.80;;;;;;4976057;28;20053;-90
2022/04/02 03:40:16;;;;;;;1999.90;999.90;;;5.10;65.70;;;;;;5003701;28;20042;-91
2022/04/02 03:42:44;;;;;;;1999.90;999.90;;;5.10;65.70;;;;;;4975305;28;20052;-90
2022/04/02 03:45:11;;;;;;;1999.90;999.90;;;5.10;65.60;;;;;;4970525;28;20567;-90
2022/04/02 03:47:37;;;;;;;1999.90;999.90;;;5.10;65.60;;;;;;4976129;28;20030;-89
2022/04/02 03:50:03;;;;;;;1999.90;999.90;;;5.10;65.60;;;;;;4991082;28;20448;-88
2022/04/02 03:52:29;;;;;;;1999.90;999.90;;;5.00;65.60;;;;;;5006868;28;20042;-88
2022/04/02 03:54:55;;;;;;;1999.90;999.90;;;5.00;65.70;;;;;;4992748;28;20095;-90
2022/04/02 03:57:21;;;;;;;1999.90;999.90;;;4.90;65.70;;;;;;4990684;28;20053;-89
2022/04/02 03:59:48;;;;;;;1999.90;999.90;;;4.90;65.70;;;;;;4974967;28;20025;-88
2022/04/02 04:02:14;;;;;;;1999.90;999.90;;;4.90;65.80;;;;;;5001900;28;20384;-90
2022/04/02 04:04:40;;;;;;;1999.90;999.90;;;4.80;65.90;;;;;;5006139;28;20510;-83
2022/04/02 04:07:07;;;;;;;1999.90;999.90;;;4.70;65.90;;;;;;4989855;28;20026;-83
2022/04/02 04:09:33;;;;;;;1999.90;999.90;;;4.70;66.10;;;;;;5006231;28;20074;-84
2022/04/02 04:11:59;;;;;;;1999.90;999.90;;;4.70;66.10;;;;;;4990953;28;20041;-84
2022/04/02 04:14:25;;;;;;;1999.90;999.90;;;4.60;66.00;;;;;;4958691;28;20138;-83
2022/04/02 04:16:52;;;;;;;1999.90;999.90;;;4.60;66.00;;;;;;4959126;28;20035;-87
2022/04/02 04:19:18;;;;;;;1999.90;999.90;;;4.60;66.00;;;;;;4983635;28;20027;-89
2022/04/02 04:21:45;;;;;;;1999.90;999.90;;;4.60;66.00;;;;;;4955436;28;20035;-88
2022/04/02 04:24:11;;;;;;;1999.90;999.90;;;4.50;66.00;;;;;;4955156;28;20041;-86
2022/04/02 04:26:38;;;;;;;1999.90;999.90;;;4.50;66.00;;;;;;4970563;28;20027;-88
2022/04/02 04:29:04;;;;;;;1999.90;999.90;;;4.50;66.10;;;;;;4955443;28;20042;-85
2022/04/02 04:31:30;;;;;;;1999.90;999.90;;;4.40;66.10;;;;;;4967083;28;20050;-88
2022/04/02 04:33:56;;;;;;;1999.90;999.90;;;4.40;66.10;;;;;;4991127;28;20045;-89
2022/04/02 04:36:24;;;;;;;1999.90;999.90;;;4.40;66.00;;;;;;4973993;28;20042;-86
2022/04/02 04:38:50;;;;;;;1999.90;999.90;;;4.40;65.90;;;;;;4963033;28;20046;-89
2022/04/02 04:41:20;;;;;;;1999.90;999.90;;;4.40;65.90;;;;;;5005358;28;20034;-87
2022/04/02 04:43:49;;;;;;;1999.90;999.90;;;4.40;65.90;;;;;;5007521;28;20050;-87
2022/04/02 04:46:16;;;;;;;1999.90;999.90;;;4.40;65.90;;;;;;4959525;28;20035;-87
2022/04/02 04:48:43;;;;;;;1999.90;999.90;;;4.40;65.90;;;;;;4978190;28;20506;-88
2022/04/02 04:51:09;;;;;;;1999.90;999.90;;;4.40;65.90;;;;;;5010146;28;20030;-88
2022/04/02 04:53:36;;;;;;;1999.90;999.90;;;4.40;65.90;;;;;;4969783;28;20053;-87
2022/04/02 04:56:02;;;;;;;1999.90;999.90;;;4.40;65.90;;;;;;4995284;28;20042;-87
2022/04/02 04:58:28;;;;;;;1999.90;999.90;;;4.40;66.70;;;;;;4994655;28;20506;-88
2022/04/02 05:00:56;;;;;;;1999.90;999.90;;;4.40;65.80;;;;;;4995051;28;20034;-90
2022/04/02 05:03:23;;;;;;;1999.90;999.90;;;4.40;65.90;;;;;;5013393;28;20049;-86
2022/04/02 05:05:49;;;;;;;1999.90;999.90;;;4.40;65.80;;;;;;4983078;28;20026;-88
2022/04/02 05:08:15;;;;;;;1999.90;999.90;;;4.40;65.80;;;;;;4993353;28;20038;-87
2022/04/02 05:10:41;;;;;;;1999.90;999.90;;;4.40;65.80;;;;;;4993751;28;20049;-87
2022/04/02 05:13:08;;;;;;;1999.90;999.90;;;4.40;65.80;;;;;;5010840;28;20026;-88
2022/04/02 05:15:35;;;;;;;1999.90;999.90;;;4.40;65.70;;;;;;5011675;28;20034;-87
2022/04/02 05:18:02;;;;;;;1999.90;999.90;;;4.40;65.70;;;;;;5011141;28;20042;-85
2022/04/02 05:20:29;;;;;;;1999.90;999.90;;;4.40;65.80;;;;;;4994617;28;20042;-84
2022/04/02 05:22:55;;;;;;;1999.90;999.90;;;4.30;65.70;;;;;;5007902;28;20022;-84
2022/04/02 05:25:21;;;;;;;1999.90;999.90;;;4.30;65.80;;;;;;5011106;28;20031;-82
2022/04/02 05:27:47;;;;;;;1999.90;999.90;;;4.30;65.80;;;;;;4993889;28;20042;-84
2022/04/02 05:30:14;;;;;;;1999.90;999.90;;;4.20;65.80;;;;;;5008095;28;20031;-84
2022/04/02 05:32:40;;;;;;;1999.90;999.90;;;4.20;65.80;;;;;;5004576;28;20031;-84
2022/04/02 05:35:07;;;;;;;1999.90;999.90;;;4.20;65.80;;;;;;5010455;28;20022;-84
2022/04/02 05:37:33;;;;;;;1999.90;999.90;;;4.20;65.80;;;;;;5009263;28;20038;-84
2022/04/02 05:39:59;;;;;;;1999.90;999.90;;;4.20;65.80;;;;;;4995930;28;20034;-84
2022/04/02 05:42:26;;;;;;;1999.90;999.90;;;4.20;65.80;;;;;;4994899;28;20042;-84
2022/04/02 05:44:54;;;;;;;1999.90;999.90;;;4.20;65.80;;;;;;4991844;28;20051;-84
2022/04/02 05:47:20;;;;;;;1999.90;999.90;;;4.20;65.80;;;;;;5003250;28;20038;-83
2022/04/02 05:49:47;;;;;;;1999.90;999.90;;;4.20;65.80;;;;;;4994603;28;20034;-83
2022/04/02 05:52:13;;;;;;;1999.90;999.90;;;4.20;65.80;;;;;;5007076;28;20027;-83
2022/04/02 05:54:40;;;;;;;1999.90;999.90;;;4.20;65.80;;;;;;4993883;28;20027;-85
2022/04/02 05:57:06;;;;;;;1999.90;999.90;;;4.30;65.70;;;;;;5009965;28;20035;-83
2022/04/02 05:59:32;;;;;;;1999.90;999.90;;;4.30;65.60;;;;;;5011596;28;20033;-84
2022/04/02 06:01:59;;;;;;;1999.90;999.90;;;4.40;65.60;;;;;;4994446;28;20411;-84
2022/04/02 06:04:25;;;;;;;1999.90;999.90;;;4.40;65.50;;;;;;5008449;28;20058;-89
2022/04/02 06:06:51;;;;;;;1999.90;999.90;;;4.50;65.50;;;;;;5006977;28;20023;-89
2022/04/02 06:09:17;;;;;;;1999.90;999.90;;;4.50;65.30;;;;;;4993877;28;20034;-89
2022/04/02 06:11:45;;;;;;;1999.90;999.90;;;4.50;65.30;;;;;;5006952;28;20034;-92
2022/04/02 06:14:13;;;;;;;1999.90;999.90;;;4.50;65.30;;;;;;5011719;28;20041;-89
2022/04/02 06:16:39;;;;;;;1999.90;999.90;;;4.60;65.30;;;;;;4980035;28;20037;-91
2022/04/02 06:19:06;;;;;;;1999.90;999.90;;;4.60;65.30;;;;;;4981283;28;20043;-83
2022/04/02 06:21:33;;;;;;;1999.90;999.90;;;4.60;65.20;;;;;;4994369;28;20029;-83
2022/04/02 06:24:04;;;;;;;1999.90;999.90;;;4.60;65.20;;;;;;5007036;28;20515;-84
2022/04/02 06:26:30;;;;;;;1999.90;999.90;;;4.60;65.20;;;;;;4989150;28;20042;-84
2022/04/02 06:28:59;;;;;;;1999.90;999.90;;;4.60;65.20;;;;;;4994394;28;20038;-84
2022/04/02 06:31:25;;;;;;;1999.90;999.90;;;4.60;65.30;;;;;;4996105;28;20422;-85
2022/04/02 06:33:51;;;;;;;1999.90;999.90;;;4.60;65.30;;;;;;4994550;28;20030;-85
2022/04/02 06:36:17;;;;;;;1999.90;999.90;;;4.70;65.20;;;;;;4994486;28;20043;-89
2022/04/02 06:38:43;;;;;;;1999.90;999.90;;;4.70;65.00;;;;;;4978078;28;20480;-87
2022/04/02 06:41:09;;;;;;;1999.90;999.90;;;4.80;64.90;;;;;;5011194;28;20053;-88
2022/04/02 06:43:36;;;;;;;1999.90;999.90;;;5.00;64.80;;;;;;4961818;28;20042;-89
2022/04/02 06:46:02;;;;;;;1999.90;999.90;;;5.10;64.60;;;;;;4993501;28;20045;-89
2022/04/02 06:48:28;;;;;;;1999.90;999.90;;;5.20;64.40;;;;;;4994703;28;20046;-86
2022/04/02 06:50:54;;;;;;;1999.90;999.90;;;5.20;64.20;;;;;;5010418;28;20613;-90
2022/04/02 06:53:20;;;;;;;1999.90;999.90;;;5.30;64.20;;;;;;5009860;28;20037;-87
2022/04/02 06:55:47;;;;;;;1999.90;999.90;;;5.40;64.10;;;;;;4994972;28;20041;-85
2022/04/02 06:58:32;;;;;;;1999.90;999.90;;;5.50;64.00;;;;;;4993404;28;20029;-81
2022/04/02 07:00:58;;;;;;;1999.90;999.90;;;5.60;63.90;;;;;;5003180;28;20031;-82
2022/04/02 07:03:24;;;;;;;1999.90;999.90;;;5.80;63.70;;;;;;4990341;28;20054;-85
2022/04/02 07:05:51;;;;;;;1999.90;999.90;;;5.90;63.50;;;;;;5006392;28;20035;-86
2022/04/02 07:08:17;;;;;;;1999.90;999.90;;;6.00;63.30;;;;;;4962608;28;20053;-86
2022/04/02 07:10:43;;;;;;;1999.90;999.90;;;6.20;63.10;;;;;;4962683;28;20042;-83
2022/04/02 07:13:09;;;;;;;1999.90;999.90;;;6.30;62.90;;;;;;4993051;28;20034;-84
2022/04/02 07:15:35;;;;;;;1999.90;999.90;;;6.50;62.70;;;;;;4962595;28;20034;-83
2022/04/02 07:18:09;;;;;;;1999.90;999.90;;;6.60;62.60;;;;;;5006529;28;20031;-83
2022/04/02 07:20:38;;;;;;;1999.90;999.90;;;6.80;62.40;;;;;;4980524;28;20039;-89
2022/04/02 07:23:05;;;;;;;1999.90;999.90;;;7.00;62.20;;;;;;4994472;28;20379;-89
2022/04/02 07:25:31;;;;;;;1999.90;999.90;;;7.10;61.90;;;;;;4982219;28;20034;-93
2022/04/02 07:27:57;;;;;;;1999.90;999.90;;;7.30;61.70;;;;;;4979602;28;20030;-89
2022/04/02 07:30:24;;;;;;;1999.90;999.90;;;7.40;61.60;;;;;;4977960;28;20103;-84
2022/04/02 07:32:51;;;;;;;1999.90;999.90;;;7.50;61.40;;;;;;4988466;28;20038;-84
2022/04/02 07:35:18;;;;;;;1999.90;999.90;;;7.60;61.20;;;;;;4991337;28;20038;-85
2022/04/02 07:37:53;;;;;;;1999.90;999.90;;;7.70;61.20;;;;;;5007796;28;20023;-89
2022/04/02 07:40:23;;;;;;;1999.90;999.90;;;7.80;61.20;;;;;;5006815;28;20034;-83
2022/04/02 07:43:10;;;;;;;1999.90;999.90;;;7.90;61.10;;;;;;4989259;28;20057;-86
2022/04/02 07:45:40;;;;;;;1999.90;999.90;;;8.00;60.90;;;;;;4988703;28;20194;-87
2022/04/02 07:48:08;;;;;;;1999.90;999.90;;;8.20;60.80;;;;;;4974698;28;20039;-87
2022/04/02 07:50:40;;;;;;;1999.90;999.90;;;8.30;60.60;;;;;;4990489;28;20051;-91
2022/04/02 07:53:28;;;;;;;1999.90;999.90;;;8.50;60.40;;;;;;4974962;28;20047;-89
2022/04/02 07:55:57;;;;;;;1999.90;999.90;;;8.60;60.20;;;;;;4972698;28;20045;-88
2022/04/02 07:58:34;;;;;;;1999.90;999.90;;;8.70;59.90;;;;;;4991141;28;20046;-89
2022/04/02 08:01:03;;;;;;;1999.90;999.90;;;8.90;60.00;;;;;;5007349;28;20034;-90
2022/04/02 08:03:32;;;;;;;1999.90;999.90;;;9.00;59.80;;;;;;4975608;28;20498;-90
2022/04/02 08:05:58;;;;;;;1999.90;999.90;;;9.10;59.70;;;;;;5005526;28;20042;-93
2022/04/02 08:08:25;;;;;;;1999.90;999.90;;;9.20;59.60;;;;;;5000143;28;20034;-88
2022/04/02 08:10:52;;;;;;;1999.90;999.90;;;9.30;59.60;;;;;;4991100;28;20491;-89
2022/04/02 08:13:19;;;;;;;1999.90;999.90;;;9.30;59.40;;;;;;4960297;28;20053;-88
2022/04/02 08:15:45;;;;;;;1999.90;999.90;;;9.40;59.40;;;;;;5002774;28;20412;-89
2022/04/02 08:18:14;;;;;;;1999.90;999.90;;;9.40;59.30;;;;;;4986267;28;20057;-91
2022/04/02 08:20:40;;;;;;;1999.90;999.90;;;9.50;59.30;;;;;;5001674;28;20030;-91
2022/04/02 08:23:06;;;;;;;1999.90;999.90;;;9.60;59.20;;;;;;4995381;28;20038;-84
2022/04/02 08:25:34;;;;;;;1999.90;999.90;;;9.60;59.00;;;;;;5001587;28;20038;-90
2022/04/02 08:28:07;;;;;;;1999.90;999.90;;;9.50;59.00;;;;;;4989206;28;20046;-89
2022/04/02 08:30:52;;;;;;;1999.90;999.90;;;9.60;58.90;;;;;;5005261;28;20034;-89
2022/04/02 08:33:51;;;;;;;1999.90;999.90;;;9.70;58.80;;;;;;4993764;28;20053;-89
2022/04/02 08:36:24;;;;;;;1999.90;999.90;;;9.80;58.70;;;;;;4973519;28;20034;-90
2022/04/02 08:39:03;;;;;;;1999.90;999.90;;;9.90;58.60;;;;;;4959078;28;20038;-92
2022/04/02 08:42:08;;;;;;;1999.90;999.90;;;10.10;58.30;;;;;;4974417;28;20045;-90
2022/04/02 08:45:00;;;;;;;1999.90;999.90;;;10.40;58.10;;;;;;4989165;28;20046;-93
2022/04/02 08:47:49;;;;;;;1999.90;999.90;;;10.60;57.80;;;;;;4971685;28;20057;-87
2022/04/02 08:50:15;;;;;;;1999.90;999.90;;;10.70;57.60;;;;;;4966894;28;20030;-87
2022/04/02 08:52:51;;;;;;;1999.90;999.90;;;10.90;57.40;;;;;;4973712;28;20073;-87
2022/04/02 08:55:40;;;;;;;1999.90;999.90;;;10.90;57.20;;;;;;4983645;28;20042;-90
2022/04/02 08:58:27;;;;;;;1999.90;999.90;;;10.90;57.10;;;;;;4970799;28;20042;-88
2022/04/02 09:01:04;;;;;;;1999.90;999.90;;;10.90;57.20;;;;;;4988603;28;20031;-88
2022/04/02 09:03:58;;;;;;;1999.90;999.90;;;11.00;56.90;;;;;;4956850;28;20046;-89
2022/04/02 09:06:51;;;;;;;1999.90;999.90;;;11.00;56.90;;;;;;4989679;28;20061;-87
2022/04/02 09:09:39;;;;;;;1999.90;999.90;;;11.00;56.70;;;;;;4981557;28;20031;-89
2022/04/02 09:12:35;;;;;;;1999.90;999.90;;;11.10;56.70;;;;;;4990686;28;20046;-89
2022/04/02 09:15:15;;;;;;;1999.90;999.90;;;11.20;56.50;;;;;;4992038;28;20383;-83
2022/04/02 09:18:19;;;;;;;1999.90;999.90;;;11.40;56.40;;;;;;5003471;28;20039;-87
2022/04/02 09:20:57;;;;;;;1999.90;999.90;;;11.60;56.10;;;;;;5006961;28;20483;-86
2022/04/02 09:23:45;;;;;;;1999.90;999.90;;;11.80;55.80;;;;;;5003675;28;20023;-86
2022/04/02 09:26:40;;;;;;;1999.90;999.90;;;11.90;55.50;;;;;;4991569;28;20042;-85
2022/04/02 09:29:16;;;;;;;1999.90;999.90;;;12.00;55.40;;;;;;5006009;28;20038;-86
2022/04/02 09:32:00;;;;;;;1999.90;999.90;;;12.10;55.30;;;;;;5009347;28;20030;-84
2022/04/02 09:35:18;;;;;;;1999.90;999.90;;;12.10;55.40;;;;;;4991115;28;20038;-87
2022/04/02 09:38:04;;;;;;;1999.90;999.90;;;12.20;55.00;;;;;;4978130;28;20037;-83
2022/04/02 09:40:38;;;;;;;1999.90;999.90;;;12.30;55.00;;;;;;4997059;28;20034;-84
2022/04/02 09:43:13;;;;;;;1999.90;999.90;;;12.40;54.80;;;;;;4975896;28;20162;-88
2022/04/02 09:46:18;;;;;;;1999.90;999.90;;;12.40;54.70;;;;;;4957016;28;20054;-88
2022/04/02 09:48:54;;;;;;;1999.90;999.90;;;12.50;54.80;;;;;;4958980;29;20063;-87
2022/04/02 09:51:21;;;;;;;1999.90;999.90;;;12.60;54.50;;;;;;4951287;28;20043;-88
2022/04/02 09:54:02;;;;;;;1999.90;999.90;;;12.40;54.30;;;;;;4927428;29;20042;-88
2022/04/02 09:56:34;;;;;;;1999.90;999.90;;;12.10;54.50;;;;;;4934308;29;20032;-85
2022/04/02 09:59:19;;;;;;;1999.90;999.90;;;11.80;55.50;;;;;;4906286;29;20397;-88
2022/04/02 10:01:55;;;;;;;1999.90;999.90;;;11.60;55.10;;;;;;4920465;28;20043;-86
2022/04/02 10:04:45;;;;;;;1999.90;999.90;;;11.40;55.30;;;;;;4933937;29;20039;-88
2022/04/02 10:07:33;;;;;;;1999.90;999.90;;;11.40;55.10;;;;;;4953835;29;20054;-87
2022/04/02 10:09:59;;;;;;;1999.90;999.90;;;11.60;54.70;;;;;;4947972;29;20043;-89
2022/04/02 10:12:27;;;;;;;1999.90;999.90;;;11.70;54.10;;;;;;4925931;28;20062;-90
2022/04/02 10:14:58;;;;;;;1999.90;999.90;;;11.90;54.00;;;;;;4954767;28;20030;-88
2022/04/02 10:17:28;;;;;;;1999.90;999.90;;;12.10;53.80;;;;;;4938301;28;20522;-84
2022/04/02 10:19:58;;;;;;;1999.90;999.90;;;12.30;53.50;;;;;;4938931;28;20230;-87
2022/04/02 10:22:38;;;;;;;1999.90;999.90;;;12.40;53.40;;;;;;4939757;28;20045;-87
2022/04/02 10:25:06;;;;;;;1999.90;999.90;;;12.30;53.30;;;;;;4961781;28;20043;-89
2022/04/02 10:27:36;;;;;;;1999.90;999.90;;;12.00;53.40;;;;;;4989247;28;20031;-88
2022/04/02 10:30:07;;;;;;;1999.90;999.90;;;11.90;53.80;;;;;;4976565;28;20026;-88
2022/04/02 10:32:37;;;;;;;1999.90;999.90;;;11.90;53.90;;;;;;4987148;28;20387;-87
2022/04/02 10:35:05;;;;;;;1999.90;999.90;;;12.00;53.50;;;;;;4992769;28;20022;-90
2022/04/02 10:37:39;;;;;;;1999.90;999.90;;;11.90;53.20;;;;;;4977080;28;20030;-89
2022/04/02 10:40:07;;;;;;;1999.90;999.90;;;11.70;53.20;;;;;;4990874;28;20034;-89
2022/04/02 10:42:35;;;;;;;1999.90;999.90;;;11.50;53.60;;;;;;4975237;28;20050;-87
2022/04/02 10:45:21;;;;;;;1999.90;999.90;;;11.40;53.70;;;;;;4971905;28;20043;-87
2022/04/02 10:47:48;;;;;;;1999.90;999.90;;;11.40;53.80;;;;;;4951312;28;20499;-85
2022/04/02 10:50:18;;;;;;;1999.90;999.90;;;11.50;53.30;;;;;;4972854;28;20037;-85
2022/04/02 10:52:46;;;;;;;1999.90;999.90;;;11.80;53.00;;;;;;4973673;28;20526;-87
2022/04/02 10:55:15;;;;;;;1999.90;999.90;;;12.00;52.10;;;;;;4972126;28;20042;-82
2022/04/02 10:57:41;;;;;;;1999.90;999.90;;;12.00;51.80;;;;;;4975296;28;20023;-83
2022/04/02 11:00:08;;;;;;;1999.90;999.90;;;11.90;51.60;;;;;;4969836;28;20035;-84
2022/04/02 11:02:42;;;;;;;1999.90;999.90;;;11.70;51.70;;;;;;4983903;28;20038;-84
2022/04/02 11:05:10;;;;;;;1999.90;999.90;;;11.50;51.60;;;;;;4991932;28;20037;-84
2022/04/02 11:07:40;;;;;;;1999.90;999.90;;;11.40;52.00;;;;;;4975947;28;20463;-85
2022/04/02 11:10:07;;;;;;;1999.90;999.90;;;11.40;52.00;;;;;;4977498;28;20479;-83
2022/04/02 11:12:39;;;;;;;1999.90;999.90;;;11.60;51.80;;;;;;4961174;28;20403;-84
2022/04/02 11:15:09;;;;;;;;;;;12.00;51.60;;;;;;4992990;28;20066;-83
2022/04/02 11:17:37;;;;;;;1999.90;999.90;;;12.30;51.00;;;;;;4993406;28;20394;-85
2022/04/02 11:20:22;;;;;;;1999.90;999.90;;;12.20;50.50;;;;;;4991275;28;20047;-87
2022/04/02 11:22:57;;;;;;;1999.90;999.90;;;12.10;50.70;;;;;;4990004;28;20046;-87
2022/04/02 11:25:31;;;;;;;1999.90;999.90;;;11.80;50.60;;;;;;5004187;28;20037;-88
2022/04/02 11:28:12;;;;;;;1999.90;999.90;;;11.60;50.80;;;;;;4987899;28;20061;-86
2022/04/02 11:30:48;;;;;;;1999.90;999.90;;;11.40;50.80;;;;;;4979592;28;20046;-87
2022/04/02 11:33:24;;;;;;;1999.90;999.90;;;11.30;50.80;;;;;;4947849;28;20049;-86
2022/04/02 11:36:06;;;;;;;1999.90;999.90;;;11.40;51.00;;;;;;4972102;28;20033;-84
2022/04/02 11:38:35;;;;;;;1999.90;999.90;;;11.40;50.90;;;;;;4974720;28;20034;-86
2022/04/02 11:41:20;;;;;;;1999.90;999.90;;;11.40;50.80;;;;;;4957157;28;20043;-85
2022/04/02 11:43:47;;;;;;;1999.90;999.90;;;11.30;50.70;;;;;;4985954;28;20526;-84
2022/04/02 11:46:15;;;;;;;1999.90;999.90;;;11.20;50.80;;;;;;4994655;28;20043;-85
2022/04/02 11:48:57;;;;;;;1999.90;999.90;;;11.20;50.80;;;;;;4970783;28;20038;-87
2022/04/02 11:51:26;;;;;;;1999.90;999.90;;;11.40;50.80;;;;;;4939995;28;20046;-85
2022/04/02 11:53:52;;;;;;;1999.90;999.90;;;11.70;50.40;;;;;;4986692;28;20472;-86
2022/04/02 11:56:26;;;;;;;1999.90;999.90;;;12.10;50.10;;;;;;4970458;28;20692;-86
2022/04/02 11:58:54;;;;;;;1999.90;999.90;;;12.30;49.70;;;;;;4973577;28;20050;-86
2022/04/02 12:01:21;;;;;;;1999.90;999.90;;;12.50;49.50;;;;;;4984862;28;20392;-87
2022/04/02 12:04:05;;;;;;;1999.90;999.90;;;12.80;49.20;;;;;;4970849;28;20488;-86
2022/04/02 12:06:35;;;;;;;1999.90;999.90;;;12.90;48.90;;;;;;4983889;28;20039;-87
2022/04/02 12:09:11;;;;;;;1999.90;999.90;;;12.90;48.70;;;;;;4986804;28;20026;-87
2022/04/02 12:11:40;;;;;;;1999.90;999.90;;;13.00;48.70;;;;;;4984935;28;20388;-86
2022/04/02 12:14:06;;;;;;;1999.90;999.90;;;13.00;48.60;;;;;;4986696;28;20027;-85
2022/04/02 12:16:32;;;;;;;1999.90;999.90;;;12.90;48.30;;;;;;4971260;28;20058;-85
2022/04/02 12:18:58;;;;;;;1999.90;999.90;;;12.70;48.30;;;;;;4955497;28;20043;-85
2022/04/02 12:21:32;;;;;;;1999.90;999.90;;;12.50;48.20;;;;;;5003361;28;20041;-85
2022/04/02 12:24:00;;;;;;;1999.90;999.90;;;12.40;48.50;;;;;;4985147;28;20376;-85